Crescent City, FL (32112)

8:42 AM EDT on August 29, 2015 (GMT -0400)
South end of Crescent Lake | | Change Station
CLOSE
Current Station
Personal Weather Station
Location: Crescent City, FL
Elevation: 16 ft
Nearby Weather Stations

Elev 16 ft 29.39 °N, 81.47 °W | Updated 2 minutes ago

Clear
Clear
79.8 °F
Feels Like 85 °F
N
1.0
Wind Variable Wind from NNE
Gusts 2.0 mph

Today
High -- | Low -- °F
--% Chance of Precip.
Yesterday
High -- | Low -- °F
Precip. -- in
7:01 AM 7:51 PM
Full, 100% visible
Pressure 30.08 in
Visibility 7.0 miles
Clouds Scattered Clouds 2300 ft
Heat Index 85 °F
Dew Point 76 °F
Humidity 88%
Rainfall 0.00 in
Snow Depth Not available.
UV 0 out of 12
Pollen 6.80 out of 12
Air Quality Not available.
Flu Activity Not available.
METAR KOMN 291150Z 00000KT 7SM SCT023 23/23 A3008
Pressure 30.08 in
Visibility 7.0 miles
Clouds Scattered Clouds 2300 ft
Heat Index 85 °F
Dew Point 76 °F
Humidity 88%
Rainfall 0.00 in
Snow Depth Not available.
UV 0 out of 12
Pollen 6.80 out of 12
Air Quality Not available.
Flu Activity Not available.
METAR KOMN 291150Z 00000KT 7SM SCT023 23/23 A3008
Erika has become very unorganized in the face of strong wind shear in the eastern Caribbean Sea. The storm will pass directly over mountainous Hispaniola today, likely weakening it further. If the storm remains intact, it could reach an area favorable for strengthening before moving onto Florida by early next week. Follow the live blog

10-Day Weather Forecast

×

Almanac

Astronomy

Aug. 29, 2015 Rise Set
Actual Time
Civil Twilight
Nautical Twilight
Astronomical Twilight
Moon
Length of Visible Light
Length of Day
Tomorrow will be .
, % of the Moon is Illuminated

Today's Extremes

State Highs State Lows

Community

WunderPhotos

Upload Photos

1,850,677 photos uploaded!

WunderBlogs® & News

Nearby

Air Quality

  Air Quality AQ Index Pollutant
Not available.

Snow Depth

Station Depth Elevation

Earthquake Activity

City Distance Mag. Time & Date
Minimum magnitude displayed is 2.5.

Coastal Water Temperatures

Place Temperature

Stations

Nearby Weather Stations

Station Location Temp. Windchill Dew Point Humidity Wind Precip. Elev Updated Type